createdAt,value
2018-05-10T00:00:27.341Z,1011.80
2018-05-10T00:01:27.366Z,1011.77
2018-05-10T00:02:27.393Z,1011.75
2018-05-10T00:03:27.421Z,1011.77
2018-05-10T00:04:27.447Z,1011.75
2018-05-10T00:05:27.475Z,1011.73
2018-05-10T00:06:27.504Z,1011.76
2018-05-10T00:07:27.565Z,1011.75
2018-05-10T00:08:27.558Z,1011.77
2018-05-10T00:09:27.587Z,1011.77
2018-05-10T00:10:27.610Z,1011.75
2018-05-10T00:11:27.637Z,1011.76
2018-05-10T00:12:27.665Z,1011.79
2018-05-10T00:13:27.694Z,1011.79
2018-05-10T00:14:27.719Z,1011.79
2018-05-10T00:15:27.747Z,1011.78
2018-05-10T00:16:27.775Z,1011.76
2018-05-10T00:17:27.806Z,1011.78
2018-05-10T00:18:27.831Z,1011.78
2018-05-10T00:19:27.856Z,1011.78
2018-05-10T00:20:27.883Z,1011.78
2018-05-10T00:21:27.910Z,1011.79
2018-05-10T00:22:27.937Z,1011.81
2018-05-10T00:23:27.966Z,1011.77
2018-05-10T00:24:28.089Z,1011.79
2018-05-10T00:25:28.020Z,1011.78
2018-05-10T00:26:28.054Z,1011.83
2018-05-10T00:27:28.073Z,1011.81
2018-05-10T00:28:28.103Z,1011.81
2018-05-10T00:29:28.128Z,1011.83
2018-05-10T00:30:28.157Z,1011.85
2018-05-10T00:31:28.201Z,1011.83
2018-05-10T00:32:28.210Z,1011.84
2018-05-10T00:33:28.240Z,1011.88
2018-05-10T00:34:28.264Z,1011.83
2018-05-10T00:35:28.295Z,1011.88
2018-05-10T00:36:28.319Z,1011.83
2018-05-10T00:37:28.346Z,1011.84
2018-05-10T00:38:28.373Z,1011.86
2018-05-10T00:39:28.401Z,1011.84
2018-05-10T00:40:28.428Z,1011.87
2018-05-10T00:41:28.456Z,1011.88
2018-05-10T00:42:28.482Z,1011.88
2018-05-10T00:43:28.510Z,1011.84
2018-05-10T00:44:28.537Z,1011.87
2018-05-10T00:45:28.565Z,1011.88
2018-05-10T00:46:28.592Z,1011.87
2018-05-10T00:47:28.619Z,1011.88
2018-05-10T00:48:28.647Z,1011.89
2018-05-10T00:49:28.676Z,1011.92
2018-05-10T00:50:28.705Z,1011.95
2018-05-10T00:51:28.732Z,1011.92
2018-05-10T00:52:28.755Z,1011.92
2018-05-10T00:53:28.785Z,1011.97
2018-05-10T00:54:28.811Z,1011.96
2018-05-10T00:55:28.837Z,1011.98
2018-05-10T00:56:28.880Z,1011.96
2018-05-10T00:57:28.892Z,1011.97
2018-05-10T00:58:28.918Z,1012.00
2018-05-10T00:59:28.945Z,1012.01
2018-05-10T01:00:28.976Z,1011.98
2018-05-10T01:01:29.001Z,1012.00
2018-05-10T01:02:29.065Z,1012.01
2018-05-10T01:03:29.061Z,1012.01
2018-05-10T01:04:29.083Z,1011.98
2018-05-10T01:05:29.110Z,1012.00
2018-05-10T01:06:29.137Z,1012.04
2018-05-10T01:07:29.185Z,1011.96
2018-05-10T01:08:29.191Z,1012.01
2018-05-10T01:09:29.219Z,1012.00
2018-05-10T01:10:29.245Z,1012.02
2018-05-10T01:11:29.272Z,1012.01
2018-05-10T01:12:29.300Z,1012.00
2018-05-10T01:13:29.327Z,1011.98
2018-05-10T01:14:29.354Z,1012.02
2018-05-10T01:15:29.381Z,1012.04
2018-05-10T01:16:29.410Z,1012.07
2018-05-10T01:17:29.437Z,1012.08
2018-05-10T01:18:29.487Z,1012.06
2018-05-10T01:19:29.490Z,1012.08
2018-05-10T01:20:29.518Z,1012.07
2018-05-10T01:21:29.553Z,1012.09
2018-05-10T01:22:29.574Z,1012.06
2018-05-10T01:23:29.599Z,1012.10
2018-05-10T01:24:29.627Z,1012.07
2018-05-10T01:25:29.654Z,1012.06
2018-05-10T01:26:29.681Z,1012.12
2018-05-10T01:27:29.708Z,1012.10
2018-05-10T01:28:29.736Z,1012.13
2018-05-10T01:29:29.764Z,1012.15
2018-05-10T01:30:29.789Z,1012.11
2018-05-10T01:31:29.817Z,1012.11
2018-05-10T01:32:29.844Z,1012.12
2018-05-10T01:33:29.872Z,1012.13
2018-05-10T01:34:29.900Z,1012.12
2018-05-10T01:35:29.957Z,1012.10
2018-05-10T01:36:29.973Z,1012.11
2018-05-10T01:37:29.984Z,1012.13
2018-05-10T01:38:30.008Z,1012.11
2018-05-10T01:39:30.035Z,1012.15
2018-05-10T01:40:30.066Z,1012.12
2018-05-10T01:41:30.094Z,1012.17
2018-05-10T01:42:30.162Z,1012.17
2018-05-10T01:43:30.157Z,1012.14
2018-05-10T01:44:30.171Z,1012.17
2018-05-10T01:45:30.200Z,1012.14
2018-05-10T01:46:30.225Z,1012.17
2018-05-10T01:47:30.253Z,1012.18
2018-05-10T01:48:30.280Z,1012.21
2018-05-10T01:49:30.307Z,1012.16
2018-05-10T01:50:30.334Z,1012.21
2018-05-10T01:51:30.365Z,1012.19
2018-05-10T01:52:30.389Z,1012.19
2018-05-10T01:53:30.416Z,1012.20
2018-05-10T01:54:30.443Z,1012.20
2018-05-10T01:55:30.470Z,1012.18
2018-05-10T01:56:30.497Z,1012.18
2018-05-10T01:57:30.525Z,1012.20
2018-05-10T01:58:30.590Z,1012.20
2018-05-10T01:59:30.579Z,1012.18
2018-05-10T02:00:30.607Z,1012.20
2018-05-10T02:01:30.634Z,1012.19
2018-05-10T02:02:30.660Z,1012.19
2018-05-10T02:03:30.767Z,1012.21
2018-05-10T02:04:30.719Z,1012.21
2018-05-10T02:05:30.743Z,1012.22
2018-05-10T02:06:30.769Z,1012.20
2018-05-10T02:07:30.832Z,1012.22
2018-05-10T02:08:30.830Z,1012.22
2018-05-10T02:09:30.853Z,1012.22
2018-05-10T02:10:30.882Z,1012.24
2018-05-10T02:11:30.906Z,1012.21
2018-05-10T02:12:30.934Z,1012.23
2018-05-10T02:13:30.993Z,1012.26
2018-05-10T02:14:31.031Z,1012.24
2018-05-10T02:15:31.015Z,1012.23
2018-05-10T02:16:31.043Z,1012.26
2018-05-10T02:17:31.071Z,1012.24
2018-05-10T02:18:31.097Z,1012.25
2018-05-10T02:19:31.123Z,1012.24
2018-05-10T02:20:31.154Z,1012.23
2018-05-10T02:21:31.179Z,1012.22
2018-05-10T02:22:31.205Z,1012.27
2018-05-10T02:23:31.233Z,1012.26
2018-05-10T02:24:31.302Z,1012.26
2018-05-10T02:25:31.304Z,1012.29
2018-05-10T02:26:31.315Z,1012.24
2018-05-10T02:27:31.342Z,1012.28
2018-05-10T02:28:31.369Z,1012.27
2018-05-10T02:29:31.398Z,1012.28
2018-05-10T02:30:31.427Z,1012.27
2018-05-10T02:31:31.478Z,1012.24
2018-05-10T02:32:31.478Z,1012.25
2018-05-10T02:33:31.506Z,1012.28
2018-05-10T02:34:31.591Z,1012.28
2018-05-10T02:35:31.562Z,1012.24
2018-05-10T02:36:31.735Z,1012.26
2018-05-10T02:37:31.616Z,1012.24
2018-05-10T02:38:31.679Z,1012.24
2018-05-10T02:39:31.669Z,1012.24
2018-05-10T02:40:31.736Z,1012.25
2018-05-10T02:41:31.728Z,1012.24
2018-05-10T02:42:31.751Z,1012.23
2018-05-10T02:43:31.779Z,1012.25
2018-05-10T02:44:31.806Z,1012.21
2018-05-10T02:45:31.833Z,1012.21
2018-05-10T02:46:31.861Z,1012.21
2018-05-10T02:47:31.957Z,1012.21
2018-05-10T02:48:31.916Z,1012.16
2018-05-10T02:49:31.943Z,1012.15
2018-05-10T02:50:31.989Z,1012.17
2018-05-10T02:51:31.999Z,1012.20
2018-05-10T02:52:32.026Z,1012.16
2018-05-10T02:53:32.052Z,1012.16
2018-05-10T02:54:32.079Z,1012.19
2018-05-10T02:55:32.107Z,1012.20
2018-05-10T02:56:32.135Z,1012.18
2018-05-10T02:57:32.163Z,1012.20
2018-05-10T02:58:32.189Z,1012.24
2018-05-10T02:59:32.216Z,1012.23
2018-05-10T03:00:32.244Z,1012.24
2018-05-10T03:01:32.279Z,1012.20
2018-05-10T03:02:32.314Z,1012.26
2018-05-10T03:03:32.328Z,1012.30
2018-05-10T03:04:32.354Z,1012.26
2018-05-10T03:05:32.382Z,1012.27
2018-05-10T03:06:32.408Z,1012.26
2018-05-10T03:07:32.436Z,1012.23
2018-05-10T03:08:32.464Z,1012.27
2018-05-10T03:09:32.492Z,1012.27
2018-05-10T03:10:32.519Z,1012.25
2018-05-10T03:11:32.546Z,1012.26
2018-05-10T03:12:32.574Z,1012.28
2018-05-10T03:13:32.628Z,1012.27
2018-05-10T03:14:32.631Z,1012.28
2018-05-10T03:15:32.655Z,1012.28
2018-05-10T03:16:32.683Z,1012.27
2018-05-10T03:17:32.713Z,1012.25
2018-05-10T03:18:32.737Z,1012.27
2018-05-10T03:19:32.764Z,1012.26
2018-05-10T03:20:32.793Z,1012.26
2018-05-10T03:21:32.825Z,1012.25
2018-05-10T03:22:32.850Z,1012.29
2018-05-10T03:23:32.875Z,1012.28
2018-05-10T03:24:32.903Z,1012.29
2018-05-10T03:25:32.930Z,1012.32
2018-05-10T03:26:32.957Z,1012.29
2018-05-10T03:27:32.985Z,1012.30
2018-05-10T03:28:33.013Z,1012.28
2018-05-10T03:29:33.040Z,1012.25
2018-05-10T03:30:33.067Z,1012.27
2018-05-10T03:31:33.095Z,1012.30
2018-05-10T03:32:33.122Z,1012.28
2018-05-10T03:33:33.155Z,1012.26
2018-05-10T03:34:33.177Z,1012.25
2018-05-10T03:35:33.205Z,1012.25
2018-05-10T03:36:33.269Z,1012.27
2018-05-10T03:37:33.278Z,1012.25
2018-05-10T03:38:33.288Z,1012.26
2018-05-10T03:39:33.315Z,1012.28
2018-05-10T03:40:33.385Z,1012.26
2018-05-10T03:41:33.371Z,1012.28
2018-05-10T03:42:33.397Z,1012.29
2018-05-10T03:43:33.425Z,1012.27
2018-05-10T03:44:33.452Z,1012.31
2018-05-10T03:45:33.481Z,1012.28
2018-05-10T03:46:33.509Z,1012.26
2018-05-10T03:47:33.537Z,1012.26
2018-05-10T03:48:33.563Z,1012.28
2018-05-10T03:49:33.591Z,1012.30
2018-05-10T03:50:33.617Z,1012.29
2018-05-10T03:51:33.647Z,1012.30
2018-05-10T03:52:33.673Z,1012.30
2018-05-10T03:53:33.701Z,1012.32
2018-05-10T03:54:33.728Z,1012.33
2018-05-10T03:55:33.755Z,1012.35
2018-05-10T03:56:33.784Z,1012.38
2018-05-10T03:57:33.811Z,1012.41
2018-05-10T03:58:33.838Z,1012.38
2018-05-10T03:59:33.865Z,1012.39
2018-05-10T04:00:33.893Z,1012.39
2018-05-10T04:01:33.921Z,1012.38
2018-05-10T04:02:33.948Z,1012.41
2018-05-10T04:03:33.978Z,1012.40
2018-05-10T04:04:34.004Z,1012.41
2018-05-10T04:05:34.032Z,1012.40
2018-05-10T04:06:34.059Z,1012.42
2018-05-10T04:07:34.087Z,1012.43
2018-05-10T04:08:34.114Z,1012.40
2018-05-10T04:09:34.143Z,1012.43
2018-05-10T04:10:34.170Z,1012.42
2018-05-10T04:11:34.231Z,1012.44
2018-05-10T04:12:34.226Z,1012.46
2018-05-10T04:13:34.254Z,1012.45
2018-05-10T04:14:34.321Z,1012.41
2018-05-10T04:15:34.341Z,1012.42
2018-05-10T04:16:34.337Z,1012.44
2018-05-10T04:17:34.387Z,1012.43
2018-05-10T04:18:34.392Z,1012.47
2018-05-10T04:19:34.420Z,1012.44
2018-05-10T04:20:34.449Z,1012.44
2018-05-10T04:21:34.476Z,1012.46
2018-05-10T04:22:34.502Z,1012.47
2018-05-10T04:23:34.532Z,1012.45
2018-05-10T04:24:34.559Z,1012.47
2018-05-10T04:25:34.587Z,1012.47
2018-05-10T04:26:34.613Z,1012.48
2018-05-10T04:27:34.642Z,1012.47
2018-05-10T04:28:34.669Z,1012.48
2018-05-10T04:29:34.698Z,1012.46
2018-05-10T04:30:34.724Z,1012.49
2018-05-10T04:31:34.752Z,1012.45
2018-05-10T04:32:34.799Z,1012.45
2018-05-10T04:33:34.809Z,1012.46
2018-05-10T04:34:34.836Z,1012.44
2018-05-10T04:35:34.868Z,1012.44
2018-05-10T04:36:34.891Z,1012.45
2018-05-10T04:37:34.944Z,1012.43
2018-05-10T04:38:34.951Z,1012.46
2018-05-10T04:39:34.975Z,1012.45
2018-05-10T04:40:35.002Z,1012.45
2018-05-10T04:41:35.029Z,1012.42
2018-05-10T04:42:35.056Z,1012.46
2018-05-10T04:43:35.084Z,1012.46
2018-05-10T04:44:35.151Z,1012.44
2018-05-10T04:45:35.142Z,1012.42
2018-05-10T04:46:35.173Z,1012.43
2018-05-10T04:47:35.195Z,1012.47
2018-05-10T04:48:35.223Z,1012.44
2018-05-10T04:49:35.251Z,1012.46
2018-05-10T04:50:35.278Z,1012.46
2018-05-10T04:51:35.306Z,1012.47
2018-05-10T04:52:35.333Z,1012.49
2018-05-10T04:53:35.371Z,1012.44
2018-05-10T04:54:35.389Z,1012.46
2018-05-10T04:55:35.417Z,1012.40
2018-05-10T04:56:35.445Z,1012.45
2018-05-10T04:57:35.472Z,1012.47
2018-05-10T04:58:35.500Z,1012.40
2018-05-10T04:59:35.534Z,1012.39
2018-05-10T05:00:35.557Z,1012.44
2018-05-10T05:01:35.583Z,1012.41
2018-05-10T05:02:35.610Z,1012.42
2018-05-10T05:03:35.639Z,1012.43
2018-05-10T05:04:35.666Z,1012.44
2018-05-10T05:05:35.693Z,1012.45
2018-05-10T05:06:35.721Z,1012.47
2018-05-10T05:07:35.750Z,1012.48
2018-05-10T05:08:35.777Z,1012.48
2018-05-10T05:09:35.848Z,1012.47
2018-05-10T05:10:35.832Z,1012.47
2018-05-10T05:11:35.872Z,1012.47
2018-05-10T05:12:35.887Z,1012.47
2018-05-10T05:13:35.915Z,1012.47
2018-05-10T05:14:35.962Z,1012.46
2018-05-10T05:15:35.972Z,1012.45
2018-05-10T05:16:36.002Z,1012.47
2018-05-10T05:17:36.026Z,1012.47
2018-05-10T05:18:36.101Z,1012.48
2018-05-10T05:19:36.082Z,1012.49
2018-05-10T05:20:36.112Z,1012.50
2018-05-10T05:21:36.200Z,1012.50
2018-05-10T05:22:36.164Z,1012.50
2018-05-10T05:23:36.194Z,1012.51
2018-05-10T05:24:36.223Z,1012.51
2018-05-10T05:25:36.249Z,1012.55
2018-05-10T05:26:36.276Z,1012.54
2018-05-10T05:27:36.305Z,1012.51
2018-05-10T05:28:36.331Z,1012.55
2018-05-10T05:29:36.359Z,1012.54
2018-05-10T05:30:36.387Z,1012.55
2018-05-10T05:31:36.414Z,1012.54
2018-05-10T05:32:36.492Z,1012.53
2018-05-10T05:33:36.475Z,1012.50
2018-05-10T05:34:36.515Z,1012.47
2018-05-10T05:35:36.602Z,1012.47
2018-05-10T05:36:36.557Z,1012.47
2018-05-10T05:37:36.581Z,1012.48
2018-05-10T05:38:36.607Z,1012.50
2018-05-10T05:39:36.637Z,1012.48
2018-05-10T05:40:36.664Z,1012.50
2018-05-10T05:41:36.693Z,1012.51
2018-05-10T05:42:36.719Z,1012.54
2018-05-10T05:43:36.767Z,1012.51
2018-05-10T05:44:36.775Z,1012.56
2018-05-10T05:45:36.809Z,1012.58
2018-05-10T05:46:36.829Z,1012.55
2018-05-10T05:47:36.867Z,1012.55
2018-05-10T05:48:36.886Z,1012.57
2018-05-10T05:49:36.915Z,1012.52
2018-05-10T05:50:36.969Z,1012.56
2018-05-10T05:51:36.969Z,1012.53
2018-05-10T05:52:37.032Z,1012.52
2018-05-10T05:53:37.024Z,1012.53
2018-05-10T05:54:37.052Z,1012.58
2018-05-10T05:55:37.079Z,1012.56
2018-05-10T05:56:37.106Z,1012.55
2018-05-10T05:57:37.134Z,1012.56
2018-05-10T05:58:37.162Z,1012.57
2018-05-10T05:59:37.192Z,1012.53
2018-05-10T06:00:37.232Z,1012.55
2018-05-10T06:01:37.245Z,1012.49
2018-05-10T06:02:37.272Z,1012.53
2018-05-10T06:03:37.300Z,1012.52
2018-05-10T06:04:37.328Z,1012.51
2018-05-10T06:05:37.381Z,1012.56
2018-05-10T06:06:37.383Z,1012.54
2018-05-10T06:07:37.411Z,1012.53
2018-05-10T06:08:37.528Z,1012.52
2018-05-10T06:09:37.466Z,1012.53
2018-05-10T06:10:37.494Z,1012.56
2018-05-10T06:11:37.522Z,1012.55
2018-05-10T06:12:37.549Z,1012.54
2018-05-10T06:13:37.583Z,1012.54
2018-05-10T06:14:37.604Z,1012.58
2018-05-10T06:15:37.640Z,1012.52
2018-05-10T06:16:37.660Z,1012.53
2018-05-10T06:17:37.755Z,1012.50
2018-05-10T06:18:37.719Z,1012.53
2018-05-10T06:19:37.742Z,1012.53
2018-05-10T06:20:37.770Z,1012.55
2018-05-10T06:21:37.798Z,1012.52
2018-05-10T06:22:37.825Z,1012.53
2018-05-10T06:23:37.853Z,1012.52
2018-05-10T06:24:37.880Z,1012.55
2018-05-10T06:25:37.938Z,1012.57
2018-05-10T06:26:37.936Z,1012.59
2018-05-10T06:27:37.964Z,1012.53
2018-05-10T06:28:37.992Z,1012.55
2018-05-10T06:29:38.019Z,1012.57
2018-05-10T06:30:38.046Z,1012.53
2018-05-10T06:31:38.074Z,1012.54
2018-05-10T06:32:38.103Z,1012.53
2018-05-10T06:33:38.131Z,1012.57
2018-05-10T06:34:38.157Z,1012.53
2018-05-10T06:35:38.184Z,1012.56
2018-05-10T06:36:38.212Z,1012.53
2018-05-10T06:37:38.244Z,1012.54
2018-05-10T06:38:38.268Z,1012.52
2018-05-10T06:39:38.306Z,1012.53
2018-05-10T06:40:38.323Z,1012.53
2018-05-10T06:41:38.357Z,1012.54
2018-05-10T06:42:38.378Z,1012.53
2018-05-10T06:43:38.406Z,1012.54
2018-05-10T06:44:38.434Z,1012.53
2018-05-10T06:45:38.462Z,1012.50
2018-05-10T06:46:38.489Z,1012.49
2018-05-10T06:47:38.516Z,1012.50
2018-05-10T06:48:38.592Z,1012.50
2018-05-10T06:49:38.572Z,1012.49
2018-05-10T06:50:38.600Z,1012.53
2018-05-10T06:51:38.627Z,1012.53
2018-05-10T06:52:38.655Z,1012.54
2018-05-10T06:53:38.682Z,1012.54
2018-05-10T06:54:38.785Z,1012.53
2018-05-10T06:55:38.738Z,1012.55
2018-05-10T06:56:38.765Z,1012.50
2018-05-10T06:57:38.800Z,1012.53
2018-05-10T06:58:38.820Z,1012.52
2018-05-10T06:59:38.880Z,1012.52
2018-05-10T07:00:38.881Z,1012.51
2018-05-10T07:01:38.908Z,1012.53
2018-05-10T07:02:38.965Z,1012.55
2018-05-10T07:03:38.961Z,1012.54
2018-05-10T07:04:38.986Z,1012.60
2018-05-10T07:05:39.033Z,1012.58
2018-05-10T07:06:39.041Z,1012.60
2018-05-10T07:07:39.068Z,1012.60
2018-05-10T07:08:39.097Z,1012.60
2018-05-10T07:09:39.208Z,1012.62
2018-05-10T07:10:39.152Z,1012.62
2018-05-10T07:11:39.180Z,1012.61
2018-05-10T07:12:39.208Z,1012.64
2018-05-10T07:13:39.235Z,1012.65
2018-05-10T07:14:39.266Z,1012.60
2018-05-10T07:15:39.289Z,1012.63
2018-05-10T07:16:39.325Z,1012.62
2018-05-10T07:17:39.354Z,1012.60
2018-05-10T07:18:39.372Z,1012.60
2018-05-10T07:19:39.400Z,1012.56
2018-05-10T07:20:39.427Z,1012.57
2018-05-10T07:21:39.455Z,1012.62
2018-05-10T07:22:39.482Z,1012.62
2018-05-10T07:23:39.510Z,1012.56
2018-05-10T07:24:39.538Z,1012.64
2018-05-10T07:25:39.568Z,1012.59
2018-05-10T07:26:39.592Z,1012.63
2018-05-10T07:27:39.623Z,1012.59
2018-05-10T07:28:39.657Z,1012.61
2018-05-10T07:29:39.676Z,1012.61
2018-05-10T07:30:39.703Z,1012.68
2018-05-10T07:31:39.731Z,1012.68
2018-05-10T07:32:39.759Z,1012.64
2018-05-10T07:33:39.805Z,1012.63
2018-05-10T07:34:39.814Z,1012.64
2018-05-10T07:35:39.840Z,1012.59
2018-05-10T07:36:39.869Z,1012.60
2018-05-10T07:37:39.900Z,1012.59
2018-05-10T07:38:39.923Z,1012.56
2018-05-10T07:39:39.982Z,1012.57
2018-05-10T07:40:39.979Z,1012.54
2018-05-10T07:41:40.008Z,1012.58
2018-05-10T07:42:40.034Z,1012.58
2018-05-10T07:43:40.061Z,1012.57
2018-05-10T07:44:40.124Z,1012.56
2018-05-10T07:45:40.119Z,1012.52
2018-05-10T07:46:40.145Z,1012.53
2018-05-10T07:47:40.175Z,1012.55
2018-05-10T07:48:40.215Z,1012.50
2018-05-10T07:49:40.227Z,1012.47
2018-05-10T07:50:40.254Z,1012.48
2018-05-10T07:51:40.281Z,1012.48
2018-05-10T07:52:40.334Z,1012.48
2018-05-10T07:53:40.338Z,1012.43
2018-05-10T07:54:40.364Z,1012.43
2018-05-10T07:55:40.392Z,1012.41
2018-05-10T07:56:40.419Z,1012.43
2018-05-10T07:57:40.447Z,1012.41
2018-05-10T07:58:40.474Z,1012.41
2018-05-10T07:59:40.508Z,1012.39
2018-05-10T08:00:40.530Z,1012.39
2018-05-10T08:01:40.558Z,1012.37
2018-05-10T08:02:40.585Z,1012.43
2018-05-10T08:03:40.612Z,1012.41
2018-05-10T08:04:40.640Z,1012.43
2018-05-10T08:05:40.667Z,1012.39
2018-05-10T08:06:40.694Z,1012.43
2018-05-10T08:07:40.729Z,1012.45
2018-05-10T08:08:40.749Z,1012.42
2018-05-10T08:09:40.777Z,1012.47
2018-05-10T08:10:40.805Z,1012.40
2018-05-10T08:11:40.831Z,1012.43
2018-05-10T08:12:40.861Z,1012.40
2018-05-10T08:13:40.889Z,1012.42
2018-05-10T08:14:40.921Z,1012.37
2018-05-10T08:15:40.945Z,1012.41
2018-05-10T08:16:40.970Z,1012.39
2018-05-10T08:17:41.001Z,1012.40
2018-05-10T08:18:41.025Z,1012.40
2018-05-10T08:19:41.053Z,1012.43
2018-05-10T08:20:41.082Z,1012.41
2018-05-10T08:21:41.108Z,1012.43
2018-05-10T08:22:41.135Z,1012.38
2018-05-10T08:23:41.200Z,1012.39
2018-05-10T08:24:41.195Z,1012.38
2018-05-10T08:25:41.218Z,1012.37
2018-05-10T08:26:41.244Z,1012.34
2018-05-10T08:27:41.275Z,1012.35
2018-05-10T08:28:41.300Z,1012.35
2018-05-10T08:29:41.328Z,1012.35
2018-05-10T08:30:41.355Z,1012.33
2018-05-10T08:31:41.382Z,1012.36
2018-05-10T08:32:41.410Z,1012.32
2018-05-10T08:33:41.438Z,1012.28
2018-05-10T08:34:41.486Z,1012.29
2018-05-10T08:35:41.492Z,1012.27
2018-05-10T08:36:41.621Z,1012.24
2018-05-10T08:37:41.547Z,1012.24
2018-05-10T08:38:41.574Z,1012.26
2018-05-10T08:39:41.602Z,1012.23
2018-05-10T08:40:41.630Z,1012.29
2018-05-10T08:41:41.658Z,1012.23
2018-05-10T08:42:41.685Z,1012.23
2018-05-10T08:43:41.713Z,1012.21
2018-05-10T08:44:41.776Z,1012.24
2018-05-10T08:45:41.768Z,1012.21
2018-05-10T08:46:41.795Z,1012.26
2018-05-10T08:47:41.865Z,1012.22
2018-05-10T08:48:41.889Z,1012.19
2018-05-10T08:49:41.879Z,1012.25
2018-05-10T08:50:41.904Z,1012.21
2018-05-10T08:51:41.932Z,1012.24
2018-05-10T08:52:41.964Z,1012.20
2018-05-10T08:53:41.988Z,1012.18
2018-05-10T08:54:42.016Z,1012.17
2018-05-10T08:55:42.042Z,1012.14
2018-05-10T08:56:42.069Z,1012.22
2018-05-10T08:57:42.128Z,1012.18
2018-05-10T08:58:42.124Z,1012.16
2018-05-10T08:59:42.152Z,1012.19
2018-05-10T09:00:42.179Z,1012.19
2018-05-10T09:01:42.207Z,1012.17
2018-05-10T09:02:42.234Z,1012.16
2018-05-10T09:03:42.261Z,1012.16
2018-05-10T09:04:42.289Z,1012.17
2018-05-10T09:05:42.317Z,1012.17
2018-05-10T09:06:42.346Z,1012.15
2018-05-10T09:07:42.371Z,1012.15
2018-05-10T09:08:42.399Z,1012.18
2018-05-10T09:09:42.429Z,1012.16
2018-05-10T09:10:42.539Z,1012.13
2018-05-10T09:11:42.481Z,1012.12
2018-05-10T09:12:42.509Z,1012.14
2018-05-10T09:13:42.537Z,1012.11
2018-05-10T09:14:42.563Z,1012.12
2018-05-10T09:15:42.591Z,1012.12
2018-05-10T09:16:42.620Z,1012.08
2018-05-10T09:17:42.647Z,1012.12
2018-05-10T09:18:42.673Z,1012.09
2018-05-10T09:19:42.701Z,1012.07
2018-05-10T09:20:42.728Z,1012.06
2018-05-10T09:21:42.757Z,1012.08
2018-05-10T09:22:42.783Z,1012.03
2018-05-10T09:23:42.811Z,1012.05
2018-05-10T09:24:42.871Z,1012.02
2018-05-10T09:25:42.866Z,1012.01
2018-05-10T09:26:42.893Z,1012.01
2018-05-10T09:27:42.921Z,1012.05
2018-05-10T09:28:42.948Z,1011.98
2018-05-10T09:29:42.977Z,1011.95
2018-05-10T09:30:43.003Z,1011.99
2018-05-10T09:31:43.031Z,1011.99
2018-05-10T09:32:43.059Z,1011.99
2018-05-10T09:33:43.086Z,1011.99
2018-05-10T09:34:43.114Z,1011.99
2018-05-10T09:35:43.141Z,1011.94
2018-05-10T09:36:43.168Z,1011.97
2018-05-10T09:37:43.198Z,1012.01
2018-05-10T09:38:43.222Z,1012.00
2018-05-10T09:39:43.250Z,1011.95
2018-05-10T09:40:43.305Z,1011.94
2018-05-10T09:41:43.308Z,1011.99
2018-05-10T09:42:43.356Z,1011.96
2018-05-10T09:43:43.361Z,1011.94
2018-05-10T09:44:43.388Z,1011.92
2018-05-10T09:45:43.435Z,1011.98
2018-05-10T09:46:43.442Z,1011.93
2018-05-10T09:47:43.471Z,1011.95
2018-05-10T09:48:43.516Z,1011.92
2018-05-10T09:49:43.529Z,1011.95
2018-05-10T09:50:43.553Z,1011.90
2018-05-10T09:51:43.579Z,1011.90
2018-05-10T09:52:43.615Z,1011.90
2018-05-10T09:53:43.635Z,1011.93
2018-05-10T09:54:43.662Z,1011.87
2018-05-10T09:55:43.689Z,1011.92
2018-05-10T09:56:43.718Z,1011.91
2018-05-10T09:57:43.747Z,1011.89
2018-05-10T09:58:43.792Z,1011.91
2018-05-10T09:59:43.804Z,1011.91
2018-05-10T10:00:43.828Z,1011.90
2018-05-10T10:01:43.854Z,1011.90
2018-05-10T10:02:43.881Z,1011.88
2018-05-10T10:03:43.909Z,1011.84
2018-05-10T10:04:43.951Z,1011.84
2018-05-10T10:05:43.964Z,1011.91
2018-05-10T10:06:43.992Z,1011.91
2018-05-10T10:07:44.020Z,1011.90
2018-05-10T10:08:44.049Z,1011.87
2018-05-10T10:09:44.088Z,1011.89
2018-05-10T10:10:44.105Z,1011.88
2018-05-10T10:11:44.159Z,1011.86
2018-05-10T10:12:44.156Z,1011.88
2018-05-10T10:13:44.184Z,1011.84
2018-05-10T10:14:44.211Z,1011.82
2018-05-10T10:15:44.288Z,1011.85
2018-05-10T10:16:44.266Z,1011.80
2018-05-10T10:17:44.340Z,1011.84
2018-05-10T10:18:44.327Z,1011.81
2018-05-10T10:19:44.354Z,1011.80
2018-05-10T10:20:44.382Z,1011.82
2018-05-10T10:21:44.410Z,1011.84
2018-05-10T10:22:44.436Z,1011.85
2018-05-10T10:23:44.464Z,1011.80
2018-05-10T10:24:44.492Z,1011.78
2018-05-10T10:25:44.519Z,1011.79
2018-05-10T10:26:44.547Z,1011.76
2018-05-10T10:27:44.574Z,1011.76
2018-05-10T10:28:44.603Z,1011.78
2018-05-10T10:29:44.630Z,1011.74
2018-05-10T10:30:44.656Z,1011.78
2018-05-10T10:31:44.683Z,1011.75
2018-05-10T10:32:44.714Z,1011.74
2018-05-10T10:33:44.739Z,1011.69
2018-05-10T10:34:44.766Z,1011.69
2018-05-10T10:35:44.795Z,1011.73
2018-05-10T10:36:44.821Z,1011.72
2018-05-10T10:37:44.848Z,1011.75
2018-05-10T10:38:44.875Z,1011.72
2018-05-10T10:39:44.903Z,1011.77
2018-05-10T10:40:44.931Z,1011.72
2018-05-10T10:41:44.959Z,1011.70
2018-05-10T10:42:44.985Z,1011.72
2018-05-10T10:43:45.021Z,1011.67
2018-05-10T10:44:45.041Z,1011.69
2018-05-10T10:45:45.068Z,1011.69
2018-05-10T10:46:45.095Z,1011.71
2018-05-10T10:47:45.126Z,1011.69
2018-05-10T10:48:45.151Z,1011.70
2018-05-10T10:49:45.177Z,1011.63
2018-05-10T10:50:45.205Z,1011.67
2018-05-10T10:51:45.232Z,1011.68
2018-05-10T10:52:45.261Z,1011.64
2018-05-10T10:53:45.352Z,1011.66
2018-05-10T10:54:45.320Z,1011.67
2018-05-10T10:55:45.370Z,1011.65
2018-05-10T10:56:45.370Z,1011.64
2018-05-10T10:57:45.397Z,1011.64
2018-05-10T10:58:45.426Z,1011.66
2018-05-10T10:59:45.453Z,1011.59
2018-05-10T11:00:45.493Z,1011.54
2018-05-10T11:01:45.576Z,1011.56
2018-05-10T11:02:45.535Z,1011.60
2018-05-10T11:03:45.582Z,1011.59
2018-05-10T11:04:45.590Z,1011.57
2018-05-10T11:05:45.620Z,1011.60
2018-05-10T11:06:45.643Z,1011.57
2018-05-10T11:07:45.672Z,1011.54
2018-05-10T11:08:45.810Z,1011.57
2018-05-10T11:09:45.727Z,1011.59
2018-05-10T11:10:45.754Z,1011.55
2018-05-10T11:11:45.786Z,1011.54
2018-05-10T11:12:45.809Z,1011.53
2018-05-10T11:13:45.836Z,1011.52
2018-05-10T11:14:45.863Z,1011.49
2018-05-10T11:15:45.893Z,1011.48
2018-05-10T11:16:45.920Z,1011.49
2018-05-10T11:17:45.946Z,1011.50
2018-05-10T11:18:45.973Z,1011.49
2018-05-10T11:19:46.001Z,1011.51
2018-05-10T11:20:46.101Z,1011.47
2018-05-10T11:21:46.056Z,1011.46
2018-05-10T11:22:46.083Z,1011.49
2018-05-10T11:23:46.126Z,1011.45
2018-05-10T11:24:46.138Z,1011.47
2018-05-10T11:25:46.166Z,1011.43
2018-05-10T11:26:46.199Z,1011.46
2018-05-10T11:27:46.220Z,1011.47
2018-05-10T11:28:46.249Z,1011.46
2018-05-10T11:29:46.277Z,1011.45
2018-05-10T11:30:46.302Z,1011.49
2018-05-10T11:31:46.329Z,1011.52
2018-05-10T11:32:46.362Z,1011.46
2018-05-10T11:33:46.385Z,1011.43
2018-05-10T11:34:46.412Z,1011.46
2018-05-10T11:35:46.440Z,1011.47
2018-05-10T11:36:46.480Z,1011.44
2018-05-10T11:37:46.495Z,1011.43
2018-05-10T11:38:46.521Z,1011.36
2018-05-10T11:39:46.550Z,1011.35
2018-05-10T11:40:46.580Z,1011.33
2018-05-10T11:41:46.605Z,1011.35
2018-05-10T11:42:46.632Z,1011.36
2018-05-10T11:43:46.660Z,1011.29
2018-05-10T11:44:46.691Z,1011.32
2018-05-10T11:45:46.719Z,1011.35
2018-05-10T11:46:46.744Z,1011.30
2018-05-10T11:47:46.769Z,1011.30
2018-05-10T11:48:46.827Z,1011.29
2018-05-10T11:49:46.825Z,1011.33
2018-05-10T11:50:46.855Z,1011.34
2018-05-10T11:51:46.879Z,1011.33
2018-05-10T11:52:46.927Z,1011.36
2018-05-10T11:53:46.934Z,1011.31
2018-05-10T11:54:46.961Z,1011.30
2018-05-10T11:55:46.992Z,1011.30
2018-05-10T11:56:47.017Z,1011.29
2018-05-10T11:57:47.044Z,1011.29
2018-05-10T11:58:47.076Z,1011.30
2018-05-10T11:59:47.099Z,1011.28
2018-05-10T12:00:47.126Z,1011.28
2018-05-10T12:01:47.196Z,1011.22
2018-05-10T12:02:47.181Z,1011.21
2018-05-10T12:03:47.209Z,1011.26
2018-05-10T12:04:47.236Z,1011.21
2018-05-10T12:05:47.264Z,1011.21